QTR781 OTHH-KMIA
Flight info
| Callsign | QTR781 |
|---|---|
| Flight time | N/A |
| Altitude | 34000 |
| Route | TULUB B457 NARMI J735 KFA H741 JBL L768 MODAD B544 ALE M861 NISAP UM861 BELSU UA17 BALAX/N0498F360 UA17 YAVRU UA4 ERKAL UL615 DIGBO UQ26 TUDBU Q26 ETUBA T226 NAVOD DCT PADGU DCT KEROP DCT SASAL DCT SUBEN T161 AKINI T159 PETIX Z744 COSJE T892 RIDSU Z114 ADENU L608 DENUT/N0485F380 L610 KOPUL Q63 ICTAM L179 SAWPE DCT UNFIT DCT LEDGO DCT UNLID DCT ELSOX/M085F380 DCT DINIM/M085F390 DCT 52N020W 52N030W 52N040W 51N050W DCT ALLRY/N0498F400 N476B TOPPS DCT BEEKN Q97 KALDA DCT BGBRD Q101 SKARP Y313 HOAGG BNFSH3 |
| Aircraft | A359/H-SDE2E3GHIJ3J4J5LM1ORWXY/LB1D1 |
Departure
| Time | N/A |
|---|---|
| Airport | Hamad International Airport (OTHH) |
Arrival
| Time | 2026-05-05 05:20 |
|---|---|
| Airport | Miami International Airport (KMIA) |
| Time | Latitude | Longitude | Altitude | Speed | Heading |
|---|---|---|---|---|---|
| 2026-05-05 04:32 | 29.37713 | -78.89757 | 40104 ft | 449 kts | 197° |
| 2026-05-05 04:33 | 29.34610 | -78.90173 | 40107 ft | 449 kts | 197° |
| 2026-05-05 04:33 | 29.28440 | -78.90999 | 40106 ft | 449 kts | 197° |
| 2026-05-05 04:34 | 29.22229 | -78.91831 | 40103 ft | 448 kts | 197° |
| 2026-05-05 04:34 | 29.16040 | -78.92658 | 40109 ft | 448 kts | 197° |
| 2026-05-05 04:35 | 29.09844 | -78.93485 | 40093 ft | 448 kts | 197° |
| 2026-05-05 04:35 | 29.03688 | -78.94306 | 40094 ft | 448 kts | 197° |
| 2026-05-05 04:36 | 28.97503 | -78.95130 | 40096 ft | 447 kts | 197° |
| 2026-05-05 04:36 | 28.91317 | -78.95953 | 40097 ft | 447 kts | 198° |
| 2026-05-05 04:37 | 28.86174 | -78.96636 | 40093 ft | 447 kts | 198° |
| 2026-05-05 04:37 | 28.79995 | -78.97457 | 40094 ft | 447 kts | 198° |
| 2026-05-05 04:38 | 28.73814 | -78.98276 | 40087 ft | 447 kts | 198° |
| 2026-05-05 04:38 | 28.67627 | -78.99096 | 40096 ft | 447 kts | 198° |
| 2026-05-05 04:39 | 28.61444 | -78.99913 | 40082 ft | 447 kts | 198° |
| 2026-05-05 04:39 | 28.55272 | -79.00729 | 40088 ft | 446 kts | 198° |
| 2026-05-05 04:40 | 28.49093 | -79.01544 | 40082 ft | 446 kts | 198° |
| 2026-05-05 04:40 | 28.42915 | -79.02359 | 40084 ft | 446 kts | 198° |
| 2026-05-05 04:41 | 28.36785 | -79.03169 | 40080 ft | 445 kts | 198° |
| 2026-05-05 04:41 | 28.30888 | -79.04733 | 40082 ft | 429 kts | 209° |
| 2026-05-05 04:42 | 28.25228 | -79.06860 | 40078 ft | 428 kts | 209° |
| 2026-05-05 04:42 | 28.19579 | -79.08977 | 40077 ft | 429 kts | 209° |
| 2026-05-05 04:43 | 28.13894 | -79.11099 | 40077 ft | 429 kts | 209° |
| 2026-05-05 04:43 | 28.08214 | -79.13214 | 40078 ft | 429 kts | 209° |
| 2026-05-05 04:44 | 28.02545 | -79.15323 | 40068 ft | 429 kts | 209° |
| 2026-05-05 04:44 | 27.96879 | -79.17427 | 40071 ft | 429 kts | 209° |
| 2026-05-05 04:45 | 27.91211 | -79.19530 | 40078 ft | 429 kts | 209° |
| 2026-05-05 04:45 | 27.85577 | -79.21617 | 40069 ft | 429 kts | 209° |
| 2026-05-05 04:46 | 27.79908 | -79.23716 | 40070 ft | 429 kts | 209° |
| 2026-05-05 04:46 | 27.74234 | -79.25813 | 40070 ft | 428 kts | 209° |
| 2026-05-05 04:47 | 27.68561 | -79.27909 | 40063 ft | 428 kts | 209° |
| 2026-05-05 04:47 | 27.62895 | -79.29999 | 40066 ft | 428 kts | 209° |
| 2026-05-05 04:48 | 27.57233 | -79.32086 | 40062 ft | 428 kts | 209° |
| 2026-05-05 04:48 | 27.51595 | -79.34161 | 40060 ft | 428 kts | 209° |
| 2026-05-05 04:48 | 27.48770 | -79.35200 | 39829 ft | 425 kts | 208° |
| 2026-05-05 04:49 | 27.45969 | -79.36227 | 39313 ft | 423 kts | 208° |
| 2026-05-05 04:49 | 27.43175 | -79.37254 | 38736 ft | 422 kts | 208° |
| 2026-05-05 04:49 | 27.40380 | -79.38282 | 38056 ft | 421 kts | 208° |
| 2026-05-05 04:49 | 27.37595 | -79.39306 | 37393 ft | 421 kts | 208° |
| 2026-05-05 04:50 | 27.34815 | -79.40327 | 36749 ft | 420 kts | 208° |
| 2026-05-05 04:50 | 27.32035 | -79.41347 | 36117 ft | 419 kts | 207° |
| 2026-05-05 04:50 | 27.29251 | -79.42374 | 35524 ft | 423 kts | 207° |
| 2026-05-05 04:50 | 27.26431 | -79.43413 | 34923 ft | 427 kts | 206° |
| 2026-05-05 04:51 | 27.23599 | -79.44447 | 34339 ft | 427 kts | 206° |
| 2026-05-05 04:51 | 27.20778 | -79.45474 | 33718 ft | 425 kts | 206° |
| 2026-05-05 04:51 | 27.18005 | -79.46484 | 33074 ft | 424 kts | 206° |
| 2026-05-05 04:51 | 27.15205 | -79.47505 | 32444 ft | 422 kts | 206° |
| 2026-05-05 04:52 | 27.12417 | -79.48522 | 31813 ft | 421 kts | 206° |
| 2026-05-05 04:52 | 27.09628 | -79.49539 | 31201 ft | 419 kts | 206° |
| 2026-05-05 04:52 | 27.06856 | -79.50550 | 30612 ft | 418 kts | 206° |
| 2026-05-05 04:52 | 27.04093 | -79.51559 | 30015 ft | 416 kts | 206° |
| 2026-05-05 04:53 | 27.01346 | -79.52565 | 29335 ft | 415 kts | 206° |
| 2026-05-05 04:53 | 26.98607 | -79.53562 | 28662 ft | 413 kts | 206° |
| 2026-05-05 04:53 | 26.95881 | -79.54555 | 28007 ft | 411 kts | 206° |
| 2026-05-05 04:53 | 26.93154 | -79.55547 | 27375 ft | 409 kts | 205° |
| 2026-05-05 04:54 | 26.90484 | -79.56518 | 26755 ft | 407 kts | 205° |
| 2026-05-05 04:54 | 26.87789 | -79.57500 | 26150 ft | 405 kts | 205° |
| 2026-05-05 04:54 | 26.85111 | -79.58469 | 25557 ft | 404 kts | 204° |
| 2026-05-05 04:54 | 26.82442 | -79.59429 | 24970 ft | 402 kts | 204° |
| 2026-05-05 04:55 | 26.79782 | -79.60386 | 24400 ft | 400 kts | 204° |
| 2026-05-05 04:55 | 26.77141 | -79.61337 | 23842 ft | 398 kts | 204° |
| 2026-05-05 04:55 | 26.74511 | -79.62284 | 23220 ft | 396 kts | 204° |
| 2026-05-05 04:55 | 26.71929 | -79.63212 | 22568 ft | 393 kts | 204° |
| 2026-05-05 04:56 | 26.69322 | -79.64150 | 21930 ft | 391 kts | 203° |
| 2026-05-05 04:56 | 26.66735 | -79.65080 | 21312 ft | 389 kts | 203° |
| 2026-05-05 04:56 | 26.64167 | -79.66003 | 20710 ft | 387 kts | 203° |
| 2026-05-05 04:56 | 26.61610 | -79.66924 | 20110 ft | 384 kts | 203° |
| 2026-05-05 04:57 | 26.59067 | -79.67826 | 19523 ft | 382 kts | 202° |
| 2026-05-05 04:57 | 26.56532 | -79.68707 | 18946 ft | 381 kts | 202° |
| 2026-05-05 04:57 | 26.54006 | -79.69586 | 18385 ft | 379 kts | 202° |
| 2026-05-05 04:57 | 26.51530 | -79.70449 | 17754 ft | 377 kts | 202° |
| 2026-05-05 04:58 | 26.49035 | -79.71320 | 17122 ft | 375 kts | 202° |
| 2026-05-05 04:58 | 26.46601 | -79.72306 | 16495 ft | 368 kts | 210° |
| 2026-05-05 04:58 | 26.44577 | -79.73938 | 16117 ft | 352 kts | 227° |
| 2026-05-05 04:58 | 26.42925 | -79.75879 | 15993 ft | 336 kts | 230° |
| 2026-05-05 04:59 | 26.41376 | -79.77777 | 15781 ft | 326 kts | 230° |
| 2026-05-05 04:59 | 26.39854 | -79.79644 | 15548 ft | 323 kts | 230° |
| 2026-05-05 04:59 | 26.38395 | -79.81517 | 15313 ft | 323 kts | 234° |
| 2026-05-05 04:59 | 26.37078 | -79.83534 | 15074 ft | 322 kts | 237° |
| 2026-05-05 05:00 | 26.35797 | -79.85595 | 14838 ft | 321 kts | 237° |
| 2026-05-05 05:00 | 26.34522 | -79.87648 | 14609 ft | 321 kts | 237° |
| 2026-05-05 05:00 | 26.33251 | -79.89688 | 14375 ft | 320 kts | 237° |
| 2026-05-05 05:00 | 26.31982 | -79.91724 | 14146 ft | 320 kts | 237° |
| 2026-05-05 05:01 | 26.30712 | -79.93757 | 13912 ft | 319 kts | 237° |
| 2026-05-05 05:01 | 26.29454 | -79.95764 | 13666 ft | 319 kts | 237° |
| 2026-05-05 05:01 | 26.28182 | -79.97793 | 13407 ft | 318 kts | 237° |
| 2026-05-05 05:01 | 26.26910 | -79.99816 | 13157 ft | 318 kts | 237° |
| 2026-05-05 05:02 | 26.25412 | -80.01638 | 12904 ft | 322 kts | 220° |
| 2026-05-05 05:02 | 26.23402 | -80.02692 | 12657 ft | 328 kts | 199° |
| 2026-05-05 05:02 | 26.21161 | -80.03243 | 12402 ft | 330 kts | 195° |
| 2026-05-05 05:02 | 26.18904 | -80.03724 | 12153 ft | 330 kts | 195° |
| 2026-05-05 05:03 | 26.16644 | -80.04215 | 11905 ft | 329 kts | 195° |
| 2026-05-05 05:03 | 26.14401 | -80.04712 | 11656 ft | 328 kts | 195° |
| 2026-05-05 05:03 | 26.12193 | -80.05208 | 11413 ft | 327 kts | 195° |
| 2026-05-05 05:03 | 26.09959 | -80.05714 | 11179 ft | 326 kts | 195° |
| 2026-05-05 05:04 | 26.07735 | -80.06216 | 11024 ft | 325 kts | 195° |
| 2026-05-05 05:04 | 26.05520 | -80.06733 | 10997 ft | 325 kts | 197° |
| 2026-05-05 05:04 | 26.03324 | -80.07306 | 10921 ft | 324 kts | 197° |
| 2026-05-05 05:04 | 26.01149 | -80.07882 | 10747 ft | 316 kts | 197° |
| 2026-05-05 05:05 | 25.99037 | -80.08436 | 10568 ft | 305 kts | 197° |
| 2026-05-05 05:05 | 25.97003 | -80.08967 | 10388 ft | 295 kts | 197° |
| 2026-05-05 05:05 | 25.95053 | -80.09475 | 10205 ft | 288 kts | 197° |
| 2026-05-05 05:05 | 25.93114 | -80.09991 | 10023 ft | 285 kts | 198° |
| 2026-05-05 05:06 | 25.91271 | -80.10767 | 9845 ft | 281 kts | 210° |
| 2026-05-05 05:06 | 25.89525 | -80.11759 | 9634 ft | 280 kts | 211° |
| 2026-05-05 05:06 | 25.87804 | -80.12767 | 9429 ft | 280 kts | 211° |
| 2026-05-05 05:06 | 25.86108 | -80.13758 | 9229 ft | 279 kts | 211° |
| 2026-05-05 05:07 | 25.84385 | -80.14759 | 9016 ft | 278 kts | 211° |
| 2026-05-05 05:07 | 25.82663 | -80.15756 | 8819 ft | 277 kts | 211° |
| 2026-05-05 05:07 | 25.80950 | -80.16747 | 8619 ft | 277 kts | 211° |
| 2026-05-05 05:07 | 25.79244 | -80.17732 | 8424 ft | 276 kts | 211° |
| 2026-05-05 05:08 | 25.77543 | -80.18714 | 8219 ft | 275 kts | 211° |
| 2026-05-05 05:08 | 25.75846 | -80.19694 | 8048 ft | 274 kts | 210° |
| 2026-05-05 05:08 | 25.74187 | -80.20681 | 7978 ft | 273 kts | 213° |
| 2026-05-05 05:08 | 25.72776 | -80.22046 | 7993 ft | 269 kts | 235° |
| 2026-05-05 05:09 | 25.71988 | -80.23901 | 7997 ft | 266 kts | 255° |
| 2026-05-05 05:09 | 25.71558 | -80.25898 | 7967 ft | 267 kts | 258° |
| 2026-05-05 05:09 | 25.71230 | -80.27925 | 7831 ft | 267 kts | 263° |
| 2026-05-05 05:09 | 25.71082 | -80.29979 | 7606 ft | 266 kts | 264° |
| 2026-05-05 05:10 | 25.70883 | -80.32013 | 7368 ft | 266 kts | 263° |
| 2026-05-05 05:10 | 25.70669 | -80.34032 | 7133 ft | 265 kts | 263° |
| 2026-05-05 05:10 | 25.70452 | -80.36061 | 6899 ft | 264 kts | 263° |
| 2026-05-05 05:10 | 25.70235 | -80.38081 | 6667 ft | 264 kts | 263° |
| 2026-05-05 05:11 | 25.70020 | -80.40110 | 6431 ft | 264 kts | 263° |
| 2026-05-05 05:11 | 25.69803 | -80.42134 | 6187 ft | 263 kts | 263° |
| 2026-05-05 05:11 | 25.69588 | -80.44147 | 5939 ft | 263 kts | 263° |
| 2026-05-05 05:11 | 25.69372 | -80.46163 | 5694 ft | 263 kts | 263° |
| 2026-05-05 05:12 | 25.69160 | -80.48158 | 5455 ft | 263 kts | 263° |
| 2026-05-05 05:12 | 25.68942 | -80.50172 | 5209 ft | 262 kts | 263° |
| 2026-05-05 05:12 | 25.68726 | -80.52177 | 5028 ft | 262 kts | 263° |
| 2026-05-05 05:12 | 25.68525 | -80.54192 | 4984 ft | 263 kts | 266° |
| 2026-05-05 05:13 | 25.68805 | -80.56188 | 4798 ft | 264 kts | 291° |
| 2026-05-05 05:13 | 25.69681 | -80.57966 | 4560 ft | 264 kts | 302° |
| 2026-05-05 05:13 | 25.70881 | -80.59506 | 4312 ft | 266 kts | 318° |
| 2026-05-05 05:13 | 25.72512 | -80.60466 | 4070 ft | 268 kts | 343° |
| 2026-05-05 05:14 | 25.74331 | -80.60811 | 3820 ft | 262 kts | 352° |
| 2026-05-05 05:14 | 25.76084 | -80.60496 | 3589 ft | 259 kts | 25° |
| 2026-05-05 05:14 | 25.77342 | -80.59190 | 3347 ft | 242 kts | 62° |
| 2026-05-05 05:14 | 25.77718 | -80.57457 | 3123 ft | 225 kts | 89° |
| 2026-05-05 05:15 | 25.77702 | -80.55750 | 3030 ft | 220 kts | 92° |
| 2026-05-05 05:15 | 25.77695 | -80.54087 | 3004 ft | 218 kts | 89° |
| 2026-05-05 05:15 | 25.77750 | -80.52379 | 2988 ft | 219 kts | 88° |
| 2026-05-05 05:15 | 25.77822 | -80.50711 | 2990 ft | 219 kts | 87° |
| 2026-05-05 05:16 | 25.77892 | -80.49056 | 2988 ft | 207 kts | 88° |
| 2026-05-05 05:16 | 25.77955 | -80.47503 | 2888 ft | 198 kts | 87° |
| 2026-05-05 05:16 | 25.78017 | -80.45980 | 2630 ft | 196 kts | 87° |
| 2026-05-05 05:16 | 25.78078 | -80.44495 | 2350 ft | 187 kts | 87° |
| 2026-05-05 05:17 | 25.78134 | -80.43114 | 2107 ft | 175 kts | 87° |
| 2026-05-05 05:17 | 25.78186 | -80.41817 | 1889 ft | 162 kts | 87° |
| 2026-05-05 05:17 | 25.78235 | -80.40614 | 1684 ft | 151 kts | 87° |
| 2026-05-05 05:17 | 25.78281 | -80.39482 | 1485 ft | 145 kts | 87° |
| 2026-05-05 05:18 | 25.78328 | -80.38367 | 1298 ft | 144 kts | 87° |
| 2026-05-05 05:18 | 25.78375 | -80.37254 | 1107 ft | 144 kts | 87° |
| 2026-05-05 05:18 | 25.78420 | -80.36139 | 923 ft | 144 kts | 86° |
| 2026-05-05 05:18 | 25.78465 | -80.35026 | 742 ft | 144 kts | 86° |
| 2026-05-05 05:19 | 25.78515 | -80.33922 | 559 ft | 142 kts | 85° |
| 2026-05-05 05:19 | 25.78571 | -80.32840 | 382 ft | 142 kts | 85° |
| 2026-05-05 05:19 | 25.78611 | -80.31750 | 211 ft | 141 kts | 85° |
| 2026-05-05 05:19 | 25.78642 | -80.30663 | 72 ft | 140 kts | 86° |
| 2026-05-05 05:20 | 25.78687 | -80.29639 | 27 ft | 117 kts | 85° |
| 2026-05-05 05:20 | 25.78712 | -80.29026 | 24 ft | 44 kts | 87° |
| 2026-05-05 05:20 | 25.78782 | -80.28716 | 27 ft | 41 kts | 47° |
| 2026-05-05 05:20 | 25.78893 | -80.28613 | 24 ft | 20 kts | 37° |
| 2026-05-05 05:21 | 25.79011 | -80.28515 | 26 ft | 24 kts | 37° |
| 2026-05-05 05:21 | 25.79103 | -80.28444 | 26 ft | 20 kts | 33° |
| 2026-05-05 05:21 | 25.79240 | -80.28447 | 26 ft | 26 kts | 305° |
| 2026-05-05 05:21 | 25.79328 | -80.28621 | 24 ft | 28 kts | 299° |
| 2026-05-05 05:22 | 25.79394 | -80.28751 | 21 ft | 25 kts | 299° |
| 2026-05-05 05:22 | 25.79520 | -80.28803 | 26 ft | 0 kts | 358° |
| 2026-05-05 05:22 | 25.79534 | -80.28804 | 30 ft | 8 kts | 357° |
| 2026-05-05 05:22 | 25.79591 | -80.28807 | 26 ft | 16 kts | 358° |
| 2026-05-05 05:23 | 25.79749 | -80.28815 | 27 ft | 28 kts | 357° |
| 2026-05-05 05:23 | 25.79932 | -80.28793 | 29 ft | 22 kts | 53° |
| 2026-05-05 05:23 | 25.79941 | -80.28608 | 27 ft | 30 kts | 87° |
| 2026-05-05 05:23 | 25.79951 | -80.28378 | 24 ft | 21 kts | 90° |
| 2026-05-05 05:24 | 25.79893 | -80.28302 | 22 ft | 9 kts | 189° |
| 2026-05-05 05:24 | 25.79827 | -80.28318 | 22 ft | 0 kts | 177° |